Ashfordby, United Kingdom
Current Conditions -  °F | °C
As of 7:20 PM on Monday 20 Oct 2014 (Local Time) from EGNX Reporting Station
Scattered Clouds Scattered Clouds  
Wind Chill: 13°   Ceiling: Unl
Heat Index: 13°   Visibility: 6mi
Dew Point:   Wind: 12mph
Humidity: 77%   Direction: 210°SSW
Pressure: 29.85"   Gusts: NA
Location:  52.75°N, 0.95°W
Report Text: EGNX 201820Z 21010KT 9999 FEW028 SCT036 13/09 Q1011
Loading
Personal Weather Stations






























Interactive Weather Map
Tropical Storm Tracking
New forecast layout! Learn more

10-Day Weather Forecast

Advertisements
Track Severe Weather on mobile